Time;durP1;ratioP1;P1;durP2;ratioP2;P2;SDS_P1;SDS_P2;PMS_P1;PMS_P2;Temp;Humidity;BMP_temperature;BMP_pressure;BME280_temperature;BME280_humidity;BME280_pressure;Samples;Min_cycle;Max_cycle;Signal;HPM_P1;HPM_P2
2021/05/29 00:04:15;;;;;;;1.30;1.00;;;17.20;48.40;;;;;;10038792;28;20126;-55
2021/05/29 00:09:06;;;;;;;1.52;1.42;;;17.20;48.60;;;;;;10038580;28;20061;-53
2021/05/29 00:13:57;;;;;;;1.38;1.20;;;17.00;49.30;;;;;;10038699;28;21044;-53
2021/05/29 00:18:48;;;;;;;2.42;1.55;;;17.20;49.00;;;;;;10039139;28;20117;-49
2021/05/29 00:23:38;;;;;;;2.00;1.40;;;17.20;49.00;;;;;;10035677;28;20244;-50
2021/05/29 00:28:29;;;;;;;2.13;1.38;;;17.20;49.00;;;;;;10038770;28;20120;-52
2021/05/29 00:33:20;;;;;;;1.15;1.00;;;17.20;49.10;;;;;;10037805;28;20037;-50
2021/05/29 00:38:11;;;;;;;2.17;1.75;;;17.10;49.30;;;;;;10038556;28;20025;-50
2021/05/29 00:43:03;;;;;;;2.10;1.25;;;17.20;49.20;;;;;;10035964;28;20408;-53
2021/05/29 00:47:55;;;;;;;2.58;1.00;;;17.20;49.20;;;;;;10038296;28;20274;-56
2021/05/29 00:52:46;;;;;;;1.30;1.08;;;17.00;49.30;;;;;;10037568;28;20041;-52
2021/05/29 00:57:40;;;;;;;2.03;1.23;;;17.00;49.70;;;;;;10037217;28;21029;-54
2021/05/29 01:02:31;;;;;;;1.23;1.13;;;16.80;50.50;;;;;;10037925;28;20045;-57
2021/05/29 01:07:21;;;;;;;1.48;1.10;;;16.70;50.80;;;;;;10036073;28;20033;-53
2021/05/29 01:12:17;;;;;;;1.38;1.10;;;16.50;51.40;;;;;;10043698;28;20037;-59
2021/05/29 01:17:08;;;;;;;1.50;1.17;;;16.60;51.60;;;;;;10044717;28;20029;-54
2021/05/29 01:22:08;;;;;;;2.55;1.13;;;16.60;51.20;;;;;;10045361;28;20064;-54
2021/05/29 01:26:58;;;;;;;1.50;1.40;;;16.60;51.50;;;;;;10043574;28;20059;-52
2021/05/29 01:31:59;;;;;;;1.48;1.08;;;16.50;51.50;;;;;;10044275;28;20126;-54
2021/05/29 01:36:50;;;;;;;1.55;1.17;;;16.50;51.30;;;;;;10042059;28;20420;-49
2021/05/29 01:41:43;;;;;;;1.23;1.10;;;16.40;52.20;;;;;;10043819;28;20036;-53
2021/05/29 01:46:34;;;;;;;1.60;1.50;;;16.30;52.20;;;;;;10043672;28;20395;-51
2021/05/29 01:51:25;;;;;;;1.13;1.02;;;16.30;52.10;;;;;;10041692;28;20079;-55
2021/05/29 01:56:16;;;;;;;1.10;0.90;;;16.30;52.10;;;;;;10044709;28;20037;-53
2021/05/29 02:01:09;;;;;;;3.95;1.75;;;16.30;52.20;;;;;;10042849;28;20147;-54
2021/05/29 02:06:00;;;;;;;1.10;1.00;;;16.20;52.50;;;;;;10043537;28;20045;-56
2021/05/29 02:10:51;;;;;;;1.60;1.27;;;16.30;52.40;;;;;;10041894;28;20033;-54
2021/05/29 02:15:42;;;;;;;1.77;1.05;;;16.20;52.50;;;;;;10043958;28;20049;-53
2021/05/29 02:20:52;;;;;;;1.67;1.10;;;16.30;52.30;;;;;;10041378;28;20052;-52
2021/05/29 02:25:43;;;;;;;2.47;1.52;;;16.30;53.10;;;;;;10042925;28;20036;-51
2021/05/29 02:30:35;;;;;;;4.07;1.40;;;16.00;52.90;;;;;;10041392;28;20386;-55
2021/05/29 02:35:25;;;;;;;2.50;1.00;;;16.00;53.20;;;;;;10042641;28;20505;-54
2021/05/29 02:40:16;;;;;;;1.95;1.05;;;15.90;53.30;;;;;;10041089;28;20044;-53
2021/05/29 02:45:08;;;;;;;1.55;1.30;;;15.90;53.70;;;;;;10041958;28;20392;-52
2021/05/29 02:50:00;;;;;;;1.88;1.38;;;15.90;53.90;;;;;;10040660;28;20033;-53
2021/05/29 02:54:51;;;;;;;1.80;1.17;;;15.70;54.40;;;;;;10041087;28;20045;-52
2021/05/29 02:59:42;;;;;;;2.13;1.20;;;15.60;54.70;;;;;;10040990;28;20064;-55
2021/05/29 03:04:35;;;;;;;2.17;1.02;;;15.60;54.50;;;;;;10038476;28;20592;-53
2021/05/29 03:09:26;;;;;;;1.48;1.10;;;15.70;54.50;;;;;;10038111;28;20044;-53
2021/05/29 03:14:17;;;;;;;2.35;1.25;;;15.60;54.70;;;;;;10037795;28;20110;-55
2021/05/29 03:19:08;;;;;;;1.90;1.20;;;15.60;55.00;;;;;;10040014;28;20416;-55
2021/05/29 03:23:59;;;;;;;2.17;1.17;;;15.40;55.60;;;;;;10040118;28;20026;-53
2021/05/29 03:28:51;;;;;;;3.72;1.45;;;15.30;55.70;;;;;;10039551;28;20120;-55
2021/05/29 03:33:41;;;;;;;4.32;1.45;;;15.30;55.90;;;;;;10038689;28;20044;-58
2021/05/29 03:38:33;;;;;;;4.80;1.65;;;15.20;56.70;;;;;;10039122;28;20037;-52
2021/05/29 03:43:23;;;;;;;2.03;1.33;;;15.20;56.70;;;;;;10038115;28;20136;-51
2021/05/29 03:48:14;;;;;;;2.33;1.42;;;15.20;56.80;;;;;;10039150;28;20048;-54
2021/05/29 03:53:07;;;;;;;2.17;1.50;;;15.10;56.80;;;;;;10040025;28;20338;-52
2021/05/29 03:57:58;;;;;;;1.30;1.17;;;15.10;57.50;;;;;;10037065;28;20183;-53
2021/05/29 04:02:49;;;;;;;1.92;1.05;;;15.00;57.60;;;;;;10037953;28;20110;-51
2021/05/29 04:07:40;;;;;;;4.20;1.40;;;14.80;58.20;;;;;;10037706;28;20048;-54
2021/05/29 04:12:32;;;;;;;1.85;1.42;;;14.90;58.50;;;;;;10038493;28;20511;-52
2021/05/29 04:17:22;;;;;;;2.90;1.75;;;14.80;59.20;;;;;;10039136;28;20474;-52
2021/05/29 04:22:13;;;;;;;3.75;2.08;;;14.70;59.00;;;;;;10038653;28;20033;-53
2021/05/29 04:27:05;;;;;;;2.80;2.15;;;14.80;59.30;;;;;;10037904;28;20126;-53
2021/05/29 04:31:55;;;;;;;3.45;1.70;;;14.80;59.70;;;;;;10035689;28;20045;-52
2021/05/29 04:36:46;;;;;;;2.38;1.60;;;14.80;59.30;;;;;;10038543;28;20032;-53
2021/05/29 04:41:37;;;;;;;2.83;1.45;;;14.90;59.40;;;;;;10037545;28;20256;-53
2021/05/29 04:46:28;;;;;;;1.67;1.58;;;14.80;59.50;;;;;;10043096;28;20523;-53
2021/05/29 04:51:19;;;;;;;2.00;1.67;;;14.80;59.60;;;;;;10045696;28;20036;-52
2021/05/29 04:56:11;;;;;;;4.05;2.03;;;14.90;59.70;;;;;;10046553;28;20040;-55
2021/05/29 05:01:02;;;;;;;2.30;1.67;;;14.90;59.80;;;;;;10046182;28;20419;-53
2021/05/29 05:05:53;;;;;;;2.90;1.85;;;14.90;60.40;;;;;;10044165;28;20053;-56
2021/05/29 05:10:43;;;;;;;2.05;1.55;;;14.80;60.80;;;;;;10045236;28;20041;-56
2021/05/29 05:15:35;;;;;;;2.30;1.52;;;14.70;60.90;;;;;;10045171;28;20141;-55
2021/05/29 05:20:26;;;;;;;2.28;1.80;;;14.70;61.20;;;;;;10043641;28;20415;-50
2021/05/29 05:25:17;;;;;;;2.03;1.52;;;14.80;61.20;;;;;;10044188;28;20036;-54
2021/05/29 05:30:10;;;;;;;1.88;1.38;;;14.80;61.00;;;;;;10042483;28;20546;-52
2021/05/29 05:35:01;;;;;;;3.33;1.63;;;15.10;60.10;;;;;;10044242;28;20068;-50
2021/05/29 05:39:52;;;;;;;2.95;2.05;;;15.20;60.00;;;;;;10042351;28;20025;-51
2021/05/29 05:44:43;;;;;;;3.33;1.20;;;15.30;59.60;;;;;;10044023;28;20133;-53
2021/05/29 05:49:34;;;;;;;2.38;1.70;;;15.40;59.60;;;;;;10041859;28;20109;-56
2021/05/29 05:54:26;;;;;;;3.88;1.55;;;15.60;58.90;;;;;;10044501;28;20508;-55
2021/05/29 05:59:16;;;;;;;2.83;1.67;;;15.60;59.30;;;;;;10041649;28;20029;-55
2021/05/29 06:04:07;;;;;;;1.35;1.25;;;15.50;59.50;;;;;;10043202;28;20099;-54
2021/05/29 06:08:58;;;;;;;3.08;1.45;;;15.60;59.30;;;;;;10042657;28;20032;-54
2021/05/29 06:23:45;;;;;;;1.65;1.50;;;15.80;59.10;;;;;;10043100;28;20041;-54
2021/05/29 06:28:36;;;;;;;1.38;1.17;;;15.90;58.70;;;;;;10042769;28;20064;-53
2021/05/29 06:33:27;;;;;;;2.15;1.60;;;16.10;58.30;;;;;;10042372;28;20071;-53
2021/05/29 06:38:18;;;;;;;1.90;1.73;;;16.10;58.30;;;;;;10042783;28;20044;-53
2021/05/29 06:43:09;;;;;;;4.05;1.42;;;16.20;58.30;;;;;;10041645;28;20033;-53
2021/05/29 06:48:00;;;;;;;1.77;1.30;;;16.20;58.00;;;;;;10042100;28;20048;-51
2021/05/29 06:52:53;;;;;;;1.42;1.33;;;16.30;57.60;;;;;;10041298;28;20055;-57
2021/05/29 07:02:54;;;;;;;2.05;1.23;;;16.30;57.40;;;;;;10040185;28;20750;-52
2021/05/29 07:07:45;;;;;;;1.90;1.42;;;16.40;57.30;;;;;;10040385;28;20035;-53
2021/05/29 07:12:36;;;;;;;1.98;1.45;;;16.50;57.00;;;;;;10038516;28;20123;-54
2021/05/29 07:17:32;;;;;;;2.67;1.33;;;16.60;56.60;;;;;;10040572;28;20769;-53
2021/05/29 07:22:23;;;;;;;1.83;1.20;;;16.70;56.60;;;;;;10039917;28;20033;-51
2021/05/29 07:27:15;;;;;;;1.60;1.02;;;16.70;56.30;;;;;;10040005;28;20106;-57
2021/05/29 07:32:06;;;;;;;2.00;1.30;;;16.90;56.20;;;;;;10039703;28;20052;-56
2021/05/29 07:36:57;;;;;;;1.70;1.23;;;17.00;55.60;;;;;;10040074;28;20040;-52
2021/05/29 07:41:48;;;;;;;1.92;1.30;;;17.10;55.60;;;;;;10039442;28;20029;-55
2021/05/29 07:46:39;;;;;;;6.65;3.92;;;17.20;55.00;;;;;;10038101;28;20037;-56
2021/05/29 07:51:34;;;;;;;3.30;2.13;;;17.30;54.90;;;;;;10034087;28;20200;-56
2021/05/29 07:56:25;;;;;;;3.40;1.20;;;17.30;54.90;;;;;;10038604;28;20555;-53
2021/05/29 08:01:16;;;;;;;2.75;2.28;;;17.30;54.60;;;;;;10038754;28;20373;-55
2021/05/29 08:06:15;;;;;;;3.65;1.63;;;17.40;54.40;;;;;;10037028;28;20044;-53
2021/05/29 08:11:06;;;;;;;3.55;1.63;;;17.60;54.30;;;;;;10038176;28;20087;-56
2021/05/29 08:15:57;;;;;;;1.75;1.15;;;17.70;54.20;;;;;;10037587;28;20040;-61
2021/05/29 08:20:51;;;;;;;1.45;1.13;;;17.60;54.00;;;;;;10036888;28;20044;-53
2021/05/29 08:25:42;;;;;;;3.85;1.55;;;17.70;53.80;;;;;;10038093;28;20764;-49
2021/05/29 08:30:33;;;;;;;1.80;1.33;;;17.80;53.30;;;;;;10037046;28;20025;-54
2021/05/29 08:35:24;;;;;;;49.63;31.40;;;18.20;52.60;;;;;;10036911;28;20037;-56
2021/05/29 08:40:17;;;;;;;110.78;62.88;;;18.50;52.00;;;;;;10034512;28;20075;-55
2021/05/29 08:45:09;;;;;;;8.38;5.45;;;18.90;51.20;;;;;;10036622;28;20040;-54
2021/05/29 08:49:59;;;;;;;3.92;2.63;;;18.80;50.90;;;;;;10033675;28;20375;-54
2021/05/29 08:54:50;;;;;;;2.03;1.70;;;18.80;50.50;;;;;;10032250;28;20048;-52
2021/05/29 08:59:41;;;;;;;2.50;1.60;;;18.70;50.30;;;;;;10034550;28;20298;-49
2021/05/29 09:04:32;;;;;;;2.40;1.63;;;18.80;50.00;;;;;;10036140;28;20092;-52
2021/05/29 09:09:23;;;;;;;3.85;1.33;;;18.90;49.60;;;;;;10037383;28;20032;-55
2021/05/29 09:14:26;;;;;;;1.77;1.17;;;19.10;49.00;;;;;;10036667;28;20033;-53
2021/05/29 09:19:17;;;;;;;1.80;1.52;;;19.20;46.90;;;;;;10037286;28;20033;-51
2021/05/29 09:24:11;;;;;;;1.45;1.15;;;19.10;47.80;;;;;;10034925;28;20021;-53
2021/05/29 09:29:12;;;;;;;0.80;0.77;;;19.10;46.70;;;;;;10036844;28;20072;-54
2021/05/29 09:34:02;;;;;;;1.25;0.82;;;19.10;45.30;;;;;;10039393;28;20048;-52
2021/05/29 09:38:54;;;;;;;2.40;0.90;;;19.20;45.90;;;;;;10043548;28;20041;-53
2021/05/29 09:44:12;;;;;;;1.38;1.00;;;19.40;45.50;;;;;;10043314;28;20037;-56
2021/05/29 09:49:02;;;;;;;1.48;0.80;;;19.40;43.30;;;;;;10042542;28;20105;-54
2021/05/29 09:53:54;;;;;;;1.20;1.10;;;19.50;44.30;;;;;;10041114;28;20488;-55
2021/05/29 09:58:49;;;;;;;1.77;1.20;;;19.80;43.80;;;;;;10043075;28;20028;-55
2021/05/29 10:03:47;;;;;;;1.30;0.93;;;19.80;43.40;;;;;;10042757;28;20577;-57
2021/05/29 10:08:38;;;;;;;1.15;0.90;;;19.90;43.20;;;;;;10042024;28;20503;-55
2021/05/29 10:13:29;;;;;;;1.85;1.15;;;19.90;42.90;;;;;;10042947;28;20043;-55
2021/05/29 10:18:20;;;;;;;2.80;1.00;;;19.90;42.80;;;;;;10042231;28;20032;-53
2021/05/29 10:23:11;;;;;;;1.70;1.27;;;19.90;42.50;;;;;;10042871;28;20569;-53
2021/05/29 10:28:03;;;;;;;1.10;0.90;;;19.80;42.80;;;;;;10041266;28;20522;-57
2021/05/29 10:33:12;;;;;;;1.65;1.00;;;19.90;43.60;;;;;;10042795;28;20045;-53
2021/05/29 10:38:02;;;;;;;2.35;1.30;;;20.00;42.90;;;;;;10040572;28;20045;-54
2021/05/29 10:43:15;;;;;;;1.75;1.40;;;20.00;43.00;;;;;;10041176;28;20033;-52
2021/05/29 10:48:11;;;;;;;1.20;1.10;;;20.00;42.30;;;;;;10039238;28;20442;-54
2021/05/29 10:53:02;;;;;;;3.20;1.20;;;20.10;42.80;;;;;;10042037;28;20136;-52
2021/05/29 10:58:02;;;;;;;3.10;2.20;;;20.20;42.50;;;;;;10039875;28;20028;-53
2021/05/29 11:03:22;;;;;;;4.38;1.30;;;20.30;42.00;;;;;;10041490;28;20527;-52
2021/05/29 11:08:51;;;;;;;4.30;1.35;;;20.20;41.70;;;;;;10039351;28;20037;-55
2021/05/29 11:14:06;;;;;;;2.92;1.25;;;20.40;40.90;;;;;;10040174;28;20284;-56
2021/05/29 11:19:31;;;;;;;3.60;1.15;;;20.40;40.80;;;;;;10039389;28;20343;-58
2021/05/29 11:24:21;;;;;;;1.97;1.47;;;20.50;40.30;;;;;;10025747;28;20047;-58
2021/05/29 11:29:12;;;;;;;1.75;1.58;;;20.50;41.40;;;;;;10039172;28;20119;-56
2021/05/29 11:34:03;;;;;;;6.65;1.63;;;20.70;41.30;;;;;;10038156;28;20427;-55
2021/05/29 11:39:17;;;;;;;1.48;0.90;;;20.60;40.80;;;;;;10038191;28;20533;-51
2021/05/29 11:44:24;;;;;;;2.03;1.25;;;20.60;40.00;;;;;;10037830;28;20068;-52
2021/05/29 11:49:15;;;;;;;2.95;1.23;;;20.80;39.70;;;;;;10037399;28;20120;-53
2021/05/29 11:54:06;;;;;;;2.15;1.45;;;20.80;40.20;;;;;;10038757;28;20056;-56
2021/05/29 11:58:58;;;;;;;3.13;1.73;;;20.80;40.10;;;;;;10038319;28;20551;-51
2021/05/29 12:03:52;;;;;;;1.38;1.15;;;21.10;40.10;;;;;;10039157;28;20076;-55
2021/05/29 12:08:56;;;;;;;2.30;1.20;;;21.30;39.50;;;;;;10037117;28;20059;-52
2021/05/29 12:14:08;;;;;;;1.77;1.13;;;21.30;37.90;;;;;;10039141;28;20048;-56
2021/05/29 12:18:59;;;;;;;1.45;1.05;;;21.60;37.20;;;;;;10038048;28;20794;-50
2021/05/29 12:23:55;;;;;;;2.15;1.45;;;22.00;38.40;;;;;;10038710;28;20037;-52
2021/05/29 12:28:46;;;;;;;1.20;0.77;;;22.40;38.40;;;;;;10037454;28;20049;-48
2021/05/29 12:33:37;;;;;;;2.75;1.23;;;22.60;37.70;;;;;;10038680;28;20049;-50
2021/05/29 12:38:28;;;;;;;1.27;1.00;;;22.90;37.60;;;;;;10036725;28;20098;-52
2021/05/29 12:43:19;;;;;;;2.53;1.05;;;23.40;37.10;;;;;;10038314;28;20110;-52
2021/05/29 12:48:13;;;;;;;3.35;2.13;;;23.90;36.50;;;;;;10037398;28;20797;-52
2021/05/29 12:53:17;;;;;;;1.58;1.00;;;25.00;35.60;;;;;;10036445;28;20140;-56
2021/05/29 12:58:16;;;;;;;2.15;1.08;;;25.30;33.40;;;;;;10035867;28;20332;-54
2021/05/29 13:09:03;;;;;;;1.17;0.90;;;26.60;30.60;;;;;;10043031;28;20127;-55
2021/05/29 13:14:08;;;;;;;1.25;0.80;;;27.60;29.70;;;;;;10045013;28;20061;-52
2021/05/29 13:19:04;;;;;;;1.35;0.93;;;28.70;26.70;;;;;;10043857;28;20071;-56
2021/05/29 13:23:58;;;;;;;1.33;0.82;;;28.70;27.50;;;;;;10044084;28;20029;-54
2021/05/29 13:28:50;;;;;;;1.85;0.95;;;29.30;27.30;;;;;;10043819;28;21117;-56
2021/05/29 13:33:41;;;;;;;1.23;1.00;;;29.80;26.70;;;;;;10044505;28;20051;-53
2021/05/29 13:38:32;;;;;;;1.60;1.10;;;29.40;26.00;;;;;;10043376;28;20466;-53
2021/05/29 13:43:23;;;;;;;2.95;0.80;;;29.60;25.80;;;;;;10043816;28;20032;-55
2021/05/29 13:48:15;;;;;;;1.67;1.10;;;29.70;25.40;;;;;;10043688;28;20029;-51
2021/05/29 13:53:06;;;;;;;1.27;0.88;;;30.00;25.70;;;;;;10043119;28;20139;-54
2021/05/29 13:57:56;;;;;;;0.90;0.57;;;30.10;25.30;;;;;;10043733;28;20533;-56
2021/05/29 14:02:47;;;;;;;1.57;0.70;;;29.90;25.40;;;;;;10042559;28;20033;-54
2021/05/29 14:07:38;;;;;;;1.97;1.00;;;30.30;25.40;;;;;;10041863;28;20049;-54
2021/05/29 14:12:29;;;;;;;1.40;0.80;;;30.30;25.30;;;;;;10042150;28;20518;-55
2021/05/29 14:17:21;;;;;;;0.80;0.80;;;30.30;25.20;;;;;;10040243;28;20053;-54
2021/05/29 14:22:12;;;;;;;0.82;0.77;;;30.30;25.10;;;;;;10041919;28;20046;-54
2021/05/29 14:27:03;;;;;;;1.03;0.93;;;30.40;24.70;;;;;;10041878;28;20033;-56
2021/05/29 14:31:54;;;;;;;1.27;0.97;;;30.20;24.90;;;;;;10041718;28;20076;-54
2021/05/29 14:36:44;;;;;;;1.23;1.00;;;30.10;25.10;;;;;;10040515;28;20090;-57
2021/05/29 14:41:35;;;;;;;1.20;1.10;;;30.20;25.10;;;;;;10041313;28;20346;-54
2021/05/29 14:46:26;;;;;;;1.17;1.10;;;30.30;24.90;;;;;;10038762;28;20129;-57
2021/05/29 14:51:19;;;;;;;1.07;0.80;;;30.50;24.50;;;;;;10040686;28;20037;-54
2021/05/29 14:56:10;;;;;;;2.28;1.00;;;30.40;24.50;;;;;;10039985;28;20029;-52
2021/05/29 15:01:01;;;;;;;1.10;1.00;;;30.60;24.20;;;;;;10035533;28;20435;-50
2021/05/29 15:05:52;;;;;;;1.65;1.08;;;30.30;24.20;;;;;;10036585;28;20461;-53
2021/05/29 15:10:43;;;;;;;1.58;0.80;;;30.00;24.30;;;;;;10039511;28;20017;-52
2021/05/29 15:15:34;;;;;;;0.90;0.75;;;30.30;24.10;;;;;;10040185;28;20045;-53
2021/05/29 15:20:33;;;;;;;0.68;0.68;;;30.30;23.90;;;;;;10038788;28;20116;-52
2021/05/29 15:25:28;;;;;;;2.55;0.80;;;30.70;23.80;;;;;;10040399;28;20095;-53
2021/05/29 15:30:21;;;;;;;2.17;1.00;;;30.90;23.60;;;;;;10038303;28;20036;-55
2021/05/29 15:35:12;;;;;;;0.93;0.70;;;30.10;23.30;;;;;;10038324;28;20052;-57
2021/05/29 15:40:03;;;;;;;3.45;1.23;;;30.90;23.10;;;;;;10037494;28;20124;-54
2021/05/29 15:44:54;;;;;;;1.25;0.88;;;31.10;22.80;;;;;;10039025;28;20100;-51
2021/05/29 15:49:44;;;;;;;1.67;0.70;;;31.10;22.40;;;;;;10037715;28;20021;-54
2021/05/29 15:54:35;;;;;;;1.50;1.10;;;31.00;22.40;;;;;;10039165;28;20037;-56
2021/05/29 15:59:26;;;;;;;1.00;0.82;;;30.80;22.00;;;;;;10036145;28;20033;-56
2021/05/29 16:04:17;;;;;;;2.33;0.75;;;31.00;21.80;;;;;;10038006;28;20040;-56
2021/05/29 16:09:08;;;;;;;0.93;0.73;;;31.90;21.70;;;;;;10038365;28;20122;-56
2021/05/29 16:13:59;;;;;;;0.67;0.67;;;31.30;21.60;;;;;;10037275;28;20037;-57
2021/05/29 16:18:51;;;;;;;1.07;0.70;;;31.70;21.50;;;;;;10038964;28;20035;-55
2021/05/29 16:23:43;;;;;;;1.30;0.80;;;32.50;21.20;;;;;;10037346;28;20360;-55
2021/05/29 16:28:35;;;;;;;0.95;0.85;;;33.70;21.10;;;;;;10038350;28;20066;-55
2021/05/29 16:33:31;;;;;;;1.98;1.33;;;34.50;20.60;;;;;;10032298;28;20700;-53
2021/05/29 16:38:21;;;;;;;1.10;0.93;;;34.70;20.60;;;;;;10036940;28;20044;-61
2021/05/29 16:43:12;;;;;;;1.10;1.10;;;34.90;20.80;;;;;;10042771;28;20032;-58
2021/05/29 16:48:04;;;;;;;1.17;1.02;;;35.20;20.50;;;;;;10045534;28;20470;-55
2021/05/29 16:52:54;;;;;;;1.60;0.90;;;34.80;20.20;;;;;;10044256;28;21397;-53
2021/05/29 16:57:45;;;;;;;2.23;0.90;;;34.90;19.80;;;;;;10044645;28;20035;-57
2021/05/29 17:02:36;;;;;;;2.20;0.90;;;35.60;19.60;;;;;;10045305;28;20287;-52
2021/05/29 17:07:27;;;;;;;0.73;0.70;;;34.60;19.50;;;;;;10043156;28;20071;-56
2021/05/29 17:12:25;;;;;;;0.73;0.73;;;34.00;19.50;;;;;;10045052;28;20114;-57
2021/05/29 17:17:16;;;;;;;1.05;0.95;;;34.20;19.70;;;;;;10044055;28;20749;-56
2021/05/29 17:22:07;;;;;;;1.17;0.83;;;34.30;19.70;;;;;;10045096;28;20040;-53
2021/05/29 17:26:57;;;;;;;1.50;0.67;;;33.60;20.00;;;;;;10042725;28;20102;-54
2021/05/29 17:31:49;;;;;;;0.77;0.77;;;33.70;20.00;;;;;;10044728;28;20040;-56
2021/05/29 17:36:40;;;;;;;2.13;1.10;;;33.80;20.30;;;;;;10044524;28;20120;-51
2021/05/29 17:41:31;;;;;;;1.97;1.00;;;32.30;20.60;;;;;;10042582;28;20398;-55
2021/05/29 17:46:22;;;;;;;0.77;0.77;;;31.60;20.90;;;;;;10042851;28;20032;-52
2021/05/29 17:51:12;;;;;;;1.33;1.10;;;31.20;21.20;;;;;;10041478;28;20449;-55
2021/05/29 17:56:06;;;;;;;0.65;0.60;;;29.90;21.60;;;;;;10042750;28;20309;-57
2021/05/29 18:00:58;;;;;;;1.17;0.97;;;26.80;23.50;;;;;;10042596;28;20166;-59
2021/05/29 18:05:56;;;;;;;1.33;1.02;;;25.00;24.10;;;;;;10042533;28;20528;-59
2021/05/29 18:10:47;;;;;;;1.52;1.00;;;24.20;25.20;;;;;;10039610;28;20028;-60
2021/05/29 18:15:38;;;;;;;0.55;0.55;;;23.70;25.20;;;;;;10042500;28;20048;-61
2021/05/29 18:20:29;;;;;;;1.77;1.00;;;23.60;25.30;;;;;;10044357;28;20037;-63
2021/05/29 18:25:20;;;;;;;1.08;0.75;;;23.40;25.50;;;;;;10043858;28;20028;-63
2021/05/29 18:30:12;;;;;;;2.50;1.17;;;23.20;25.80;;;;;;10043418;28;20037;-63
2021/05/29 18:35:05;;;;;;;0.77;0.75;;;23.00;26.10;;;;;;10040987;28;20649;-64
2021/05/29 18:39:56;;;;;;;1.55;0.90;;;22.80;26.50;;;;;;10046479;28;20041;-63
2021/05/29 18:44:47;;;;;;;2.40;0.82;;;22.80;26.60;;;;;;10039897;28;20063;-61
2021/05/29 18:49:38;;;;;;;3.25;1.00;;;22.60;26.90;;;;;;10042493;28;20035;-62
2021/05/29 18:54:28;;;;;;;2.38;1.00;;;22.60;27.10;;;;;;10042558;28;20071;-63
2021/05/29 19:04:45;;;;;;;1.13;0.77;;;22.40;27.50;;;;;;10040326;28;20591;-59
2021/05/29 19:09:36;;;;;;;2.17;1.40;;;22.40;27.60;;;;;;10041277;28;20041;-64
2021/05/29 19:14:27;;;;;;;1.70;1.02;;;22.20;28.00;;;;;;10041534;28;20029;-65
2021/05/29 19:19:18;;;;;;;1.70;0.77;;;22.20;28.20;;;;;;10039921;28;20033;-65
2021/05/29 19:29:00;;;;;;;0.77;0.73;;;21.90;28.60;;;;;;10040858;28;20037;-64
2021/05/29 19:39:11;;;;;;;1.20;0.90;;;21.80;28.90;;;;;;10040714;28;20039;-64
2021/05/29 20:25:45;;;;;;;1.15;0.80;;;20.90;30.80;;;;;;10040120;28;20047;-63
2021/05/29 20:30:34;;;;;;;1.65;1.02;;;20.80;31.10;;;;;;10039377;28;20037;-64
2021/05/29 20:35:25;;;;;;;2.53;1.10;;;20.70;31.40;;;;;;10038543;28;21710;-65
2021/05/29 20:40:18;;;;;;;1.30;1.02;;;20.70;31.60;;;;;;10032782;28;20028;-64
2021/05/29 20:45:10;;;;;;;1.65;0.90;;;20.70;31.60;;;;;;10038294;28;20245;-61
2021/05/29 20:50:01;;;;;;;2.05;1.15;;;20.50;32.00;;;;;;10037490;28;20681;-61
2021/05/29 20:54:51;;;;;;;3.13;1.00;;;20.50;32.10;;;;;;10037741;28;20056;-60
2021/05/29 20:59:43;;;;;;;1.65;0.90;;;20.30;32.40;;;;;;10037296;28;20033;-60
2021/05/29 21:04:35;;;;;;;2.58;1.02;;;20.40;32.30;;;;;;10037372;28;20695;-61
2021/05/29 21:09:26;;;;;;;1.75;0.98;;;20.30;32.60;;;;;;10035586;28;20036;-60
2021/05/29 21:14:19;;;;;;;2.30;1.20;;;20.20;32.70;;;;;;10037987;28;20052;-61
2021/05/29 21:24:21;;;;;;;3.97;1.30;;;20.10;32.90;;;;;;10037684;28;20202;-61
2021/05/29 21:29:14;;;;;;;0.90;0.88;;;20.10;33.10;;;;;;10039816;28;20170;-63
2021/05/29 21:34:06;;;;;;;1.13;0.77;;;20.00;33.40;;;;;;10044474;28;20210;-60
2021/05/29 21:38:58;;;;;;;3.25;1.10;;;19.90;33.60;;;;;;10043743;28;20416;-66
2021/05/29 21:43:50;;;;;;;2.00;1.25;;;19.80;33.90;;;;;;10044110;28;20045;-62
2021/05/29 21:53:50;;;;;;;1.40;1.10;;;19.70;34.20;;;;;;10043584;28;20107;-60
2021/05/29 21:58:41;;;;;;;2.47;1.30;;;19.70;34.30;;;;;;10041614;28;20045;-62
2021/05/29 22:03:32;;;;;;;4.55;1.27;;;19.60;34.50;;;;;;10040843;28;20041;-65
2021/05/29 22:08:24;;;;;;;3.13;1.40;;;19.40;34.90;;;;;;10042754;28;20092;-60
2021/05/29 22:18:17;;;;;;;1.50;1.00;;;19.10;35.70;;;;;;10042650;28;20040;-63
2021/05/29 22:33:28;;;;;;;2.60;1.38;;;18.80;36.90;;;;;;10042306;28;20047;-60
2021/05/29 22:38:21;;;;;;;2.63;1.48;;;18.80;36.60;;;;;;10039668;28;21503;-62
2021/05/29 22:43:12;;;;;;;2.08;1.23;;;18.70;36.90;;;;;;10039195;28;20032;-64
2021/05/29 22:48:03;;;;;;;1.83;1.20;;;18.60;37.10;;;;;;10042010;28;21247;-65
2021/05/29 22:52:54;;;;;;;2.20;1.42;;;18.70;37.20;;;;;;10039236;28;20171;-63
2021/05/29 22:57:45;;;;;;;1.30;1.10;;;18.50;37.80;;;;;;10040739;28;20400;-61
2021/05/29 23:02:38;;;;;;;2.15;1.23;;;18.40;37.70;;;;;;10040399;28;20029;-61
2021/05/29 23:07:29;;;;;;;1.83;1.05;;;18.30;38.00;;;;;;10038238;28;20092;-63
2021/05/29 23:12:20;;;;;;;2.63;2.15;;;18.20;38.30;;;;;;10041038;28;20048;-67
2021/05/29 23:17:11;;;;;;;2.10;0.90;;;18.10;38.70;;;;;;10038608;28;20068;-69
2021/05/29 23:22:02;;;;;;;2.35;1.50;;;18.00;38.80;;;;;;10041102;28;20028;-68
2021/05/29 23:26:52;;;;;;;1.90;1.20;;;17.80;39.20;;;;;;10039101;28;20118;-62
2021/05/29 23:31:43;;;;;;;1.55;1.00;;;17.80;39.20;;;;;;10039572;28;20576;-66
2021/05/29 23:36:34;;;;;;;1.50;0.85;;;17.60;40.00;;;;;;10037087;28;20619;-61
2021/05/29 23:41:25;;;;;;;1.45;0.93;;;17.60;40.00;;;;;;10038691;28;20222;-65
2021/05/29 23:46:16;;;;;;;2.20;2.00;;;17.40;40.90;;;;;;10039202;28;20025;-64
2021/05/29 23:51:06;;;;;;;1.70;1.10;;;17.00;41.80;;;;;;10039068;28;20033;-63
2021/05/29 23:55:57;;;;;;;1.33;1.17;;;17.10;41.80;;;;;;10039680;28;20071;-60
